Time;durP1;ratioP1;P1;durP2;ratioP2;P2;SDS_P1;SDS_P2;PMS_P1;PMS_P2;Temp;Humidity;BMP_temperature;BMP_pressure;BME280_temperature;BME280_humidity;BME280_pressure;Samples;Min_cycle;Max_cycle;Signal;HPM_P1;HPM_P2
2022/10/02 00:02:29;;;;;;;3.40;2.30;;;;;;;13.77;100.00;96733.83;110471;1245;68328;-73
2022/10/02 00:05:17;;;;;;;2.70;1.70;;;;;;;13.74;100.00;96734.05;110575;1244;68565;-72
2022/10/02 00:07:54;;;;;;;3.20;2.00;;;;;;;13.70;100.00;96737.08;110401;1244;59729;-71
2022/10/02 00:10:47;;;;;;;2.00;1.80;;;;;;;13.68;100.00;96744.98;110368;1246;59761;-74
2022/10/02 00:13:46;;;;;;;2.80;1.80;;;;;;;13.65;100.00;96753.23;110006;1247;71032;-73
2022/10/02 00:16:23;;;;;;;5.80;2.60;;;;;;;13.62;100.00;96750.66;110380;1245;68662;-72
2022/10/02 00:18:55;;;;;;;3.20;2.70;;;;;;;13.61;100.00;96746.58;110510;1246;69382;-73
2022/10/02 00:21:47;;;;;;;3.80;2.70;;;;;;;13.60;100.00;96745.98;110820;1244;59759;-73
2022/10/02 00:24:25;;;;;;;4.00;2.70;;;;;;;13.57;100.00;96749.23;110409;1245;59702;-75
2022/10/02 00:27:04;;;;;;;4.80;2.60;;;;;;;13.52;100.00;96743.97;110374;1244;70511;-73
2022/10/02 00:29:55;;;;;;;3.00;2.40;;;;;;;13.53;100.00;96740.07;110264;1244;69400;-72
2022/10/02 00:32:42;;;;;;;3.10;2.60;;;;;;;13.53;100.00;96736.69;110420;1243;68512;-72
2022/10/02 00:35:23;;;;;;;4.00;2.30;;;;;;;13.49;100.00;96731.61;110404;1246;59715;-72
2022/10/02 00:38:01;;;;;;;4.10;2.40;;;;;;;13.45;100.00;96732.84;110304;1245;59675;-72
2022/10/02 00:41:00;;;;;;;3.90;1.90;;;;;;;13.41;100.00;96729.91;110335;1246;71335;-73
2022/10/02 00:43:42;;;;;;;2.30;1.80;;;;;;;13.40;100.00;96731.26;110416;1247;68641;-73
2022/10/02 00:46:41;;;;;;;2.50;1.70;;;;;;;13.37;100.00;96726.02;110244;1246;69329;-73
2022/10/02 00:49:15;;;;;;;2.80;1.70;;;;;;;13.33;100.00;96726.16;110390;1246;59746;-72
2022/10/02 00:51:52;;;;;;;2.50;1.50;;;;;;;13.33;100.00;96726.35;110308;1246;59748;-72
2022/10/02 00:55:12;;;;;;;2.20;1.70;;;;;;;13.32;100.00;96733.89;110306;1244;70603;-73
2022/10/02 00:57:59;;;;;;;2.70;1.40;;;;;;;13.33;100.00;96740.33;109955;1244;69415;-72
2022/10/02 01:00:28;;;;;;;2.40;1.10;;;;;;;13.34;100.00;96740.23;110438;1244;68604;-72
2022/10/02 01:03:10;;;;;;;1.60;1.40;;;;;;;13.34;100.00;96738.96;110236;1245;59703;-75
2022/10/02 01:05:38;;;;;;;2.00;1.20;;;;;;;13.37;100.00;96735.92;110471;1246;59673;-72
2022/10/02 01:08:08;;;;;;;3.10;1.40;;;;;;;13.39;100.00;96735.41;110445;1246;71483;-72
2022/10/02 01:10:38;;;;;;;3.00;1.30;;;;;;;13.39;100.00;96733.11;110301;1245;68676;-72
2022/10/02 01:13:08;;;;;;;1.60;1.10;;;;;;;13.39;100.00;96732.75;110299;1245;69175;-72
2022/10/02 01:15:47;;;;;;;1.50;1.20;;;;;;;13.39;100.00;96731.84;110446;1245;59687;-74
2022/10/02 01:18:17;;;;;;;2.00;1.10;;;;;;;13.39;100.00;96736.73;110606;1245;59619;-74
2022/10/02 01:20:48;;;;;;;2.40;1.10;;;;;;;13.39;100.00;96740.50;110445;1244;70699;-74
2022/10/02 01:23:30;;;;;;;1.20;1.00;;;;;;;13.38;100.00;96739.50;110341;1244;69241;-75
2022/10/02 01:25:58;;;;;;;3.10;1.20;;;;;;;13.41;100.00;96739.61;110705;1244;68660;-73
2022/10/02 01:28:27;;;;;;;1.10;1.00;;;;;;;13.41;100.00;96736.96;110429;1245;59753;-75
2022/10/02 01:31:08;;;;;;;1.70;1.30;;;;;;;13.40;100.00;96738.45;110566;1247;59682;-73
2022/10/02 01:33:40;;;;;;;3.00;1.30;;;;;;;13.40;100.00;96751.20;110452;1244;71509;-72
2022/10/02 01:36:10;;;;;;;1.80;1.30;;;;;;;13.38;100.00;96750.54;110342;1244;69176;-73
2022/10/02 01:38:40;;;;;;;2.30;1.40;;;;;;;13.39;100.00;96762.46;110440;1244;68495;-74
2022/10/02 01:41:10;;;;;;;;;;;;;;;13.40;100.00;96783.73;110341;1244;59712;-73
2022/10/02 01:43:48;;;;;;;2.30;1.70;;;;;;;13.42;100.00;96807.20;110270;1247;59629;-74
2022/10/02 01:46:34;;;;;;;2.00;1.40;;;;;;;13.38;100.00;96820.52;110103;1247;71421;-72
2022/10/02 01:49:02;;;;;;;1.60;1.10;;;;;;;13.31;100.00;96819.99;110111;1247;69397;-73
2022/10/02 01:51:34;;;;;;;1.50;1.10;;;;;;;13.21;100.00;96817.21;110456;1244;69851;-72
2022/10/02 01:54:11;;;;;;;1.00;0.80;;;;;;;13.06;100.00;96827.81;110408;1245;59756;-71
2022/10/02 01:56:54;;;;;;;2.80;1.30;;;;;;;12.98;100.00;96833.27;110386;1247;59744;-72
2022/10/02 01:59:53;;;;;;;2.80;1.40;;;;;;;12.94;100.00;96834.04;110375;1245;70624;-71
2022/10/02 02:02:50;;;;;;;1.80;1.10;;;;;;;12.87;99.90;96834.52;110173;1245;68505;-70
2022/10/02 02:05:27;;;;;;;2.00;1.20;;;;;;;12.77;96.54;96826.35;110353;1242;68743;-73
2022/10/02 02:08:08;;;;;;;2.20;1.60;;;;;;;12.69;96.59;96817.00;110421;1247;59760;-72
2022/10/02 02:11:13;;;;;;;2.50;1.60;;;;;;;12.65;97.28;96814.09;110390;1247;59664;-71
2022/10/02 02:13:54;;;;;;;2.60;1.80;;;;;;;12.61;97.00;96814.66;110115;1247;70786;-71
2022/10/02 02:16:47;;;;;;;2.40;1.50;;;;;;;12.57;96.90;96814.99;110372;1244;69274;-71
2022/10/02 02:19:46;;;;;;;2.20;1.60;;;;;;;12.55;97.09;96812.18;110481;1246;69378;-71
2022/10/02 02:22:19;;;;;;;1.90;1.60;;;;;;;12.54;97.11;96806.52;110283;1245;59749;-72
2022/10/02 02:24:56;;;;;;;2.80;1.90;;;;;;;12.54;96.99;96808.44;110462;1244;59735;-71
2022/10/02 02:27:30;;;;;;;3.60;1.90;;;;;;;12.54;96.82;96809.02;110400;1245;71496;-70
2022/10/02 02:30:05;;;;;;;2.90;2.10;;;;;;;12.52;96.98;96807.96;110424;1247;68475;-73
2022/10/02 02:32:39;;;;;;;3.90;2.10;;;;;;;12.49;97.05;96809.42;110324;1247;69352;-72
2022/10/02 02:35:23;;;;;;;2.70;1.90;;;;;;;12.45;97.41;96811.68;110481;1245;60014;-72
2022/10/02 02:38:00;;;;;;;1.70;1.40;;;;;;;12.39;98.09;96808.05;110584;1245;59676;-70
2022/10/02 02:40:34;;;;;;;2.90;1.90;;;;;;;12.35;98.63;96808.79;110308;1244;71446;-72
2022/10/02 02:43:28;;;;;;;2.60;2.10;;;;;;;12.29;99.66;96815.55;110518;1244;68607;-72
2022/10/02 02:46:04;;;;;;;3.20;2.30;;;;;;;12.29;99.95;96809.84;110576;1247;69016;-71
2022/10/02 02:48:51;;;;;;;2.50;1.70;;;;;;;12.30;99.85;96808.01;110523;1247;59708;-73
2022/10/02 02:51:26;;;;;;;3.20;2.20;;;;;;;12.30;99.58;96810.11;110645;1245;59682;-72
2022/10/02 02:54:04;;;;;;;3.00;2.20;;;;;;;12.28;99.99;96816.09;110428;1244;71403;-72
2022/10/02 02:56:35;;;;;;;3.30;2.40;;;;;;;12.27;100.00;96818.95;110662;1244;69269;-72
2022/10/02 02:59:09;;;;;;;3.30;2.30;;;;;;;12.24;100.00;96821.79;110449;1244;69339;-72
2022/10/02 03:01:38;;;;;;;3.40;2.00;;;;;;;12.25;100.00;96825.39;110361;1245;59689;-73
2022/10/02 03:04:13;;;;;;;4.30;3.00;;;;;;;12.25;100.00;96829.91;110393;1244;59605;-70
2022/10/02 03:06:45;;;;;;;4.10;2.80;;;;;;;12.25;100.00;96828.88;110451;1245;71458;-70
2022/10/02 03:09:17;;;;;;;2.80;2.30;;;;;;;12.20;100.00;96832.09;110234;1245;69410;-70
2022/10/02 03:11:47;;;;;;;3.50;2.50;;;;;;;12.18;100.00;96829.81;110285;1244;67507;-70
2022/10/02 03:14:43;;;;;;;3.40;2.80;;;;;;;12.17;100.00;96835.02;110541;1244;60674;-70
2022/10/02 03:17:15;;;;;;;5.70;3.00;;;;;;;12.16;100.00;96840.15;110443;1244;59685;-72
2022/10/02 03:19:47;;;;;;;4.00;3.10;;;;;;;12.17;99.96;96839.30;110408;1244;70804;-73
2022/10/02 03:22:40;;;;;;;4.20;3.30;;;;;;;12.19;99.99;96850.19;110278;1245;67949;-74
2022/10/02 03:25:22;;;;;;;6.40;3.10;;;;;;;12.20;99.90;96852.91;110344;1244;69584;-71
2022/10/02 03:28:15;;;;;;;3.40;2.40;;;;;;;12.17;100.00;96852.13;110256;1244;59630;-72
2022/10/02 03:31:04;;;;;;;3.90;3.00;;;;;;;12.16;99.76;96865.94;110364;1244;59678;-72
2022/10/02 03:33:35;;;;;;;;;;;;;;;12.15;99.30;96869.16;110308;1244;70768;-73
2022/10/02 03:36:04;;;;;;;4.70;2.90;;;;;;;12.14;98.23;96874.73;110578;1245;69436;-73
2022/10/02 03:38:33;;;;;;;4.20;3.20;;;;;;;12.09;97.39;96871.52;110450;1246;69407;-73
2022/10/02 03:41:01;;;;;;;4.50;3.10;;;;;;;12.07;96.36;96874.84;110528;1246;59680;-73
2022/10/02 03:43:30;;;;;;;4.30;2.90;;;;;;;12.04;95.99;96883.10;110519;1247;59689;-72
2022/10/02 03:46:00;;;;;;;3.60;2.90;;;;;;;12.01;95.16;96879.90;110175;1245;71415;-72
2022/10/02 03:48:32;;;;;;;5.50;3.20;;;;;;;11.96;95.12;96878.34;110263;1245;68803;-73
2022/10/02 03:51:01;;;;;;;3.60;2.80;;;;;;;11.91;94.57;96887.54;110215;1245;68476;-73
2022/10/02 03:53:33;;;;;;;3.80;3.10;;;;;;;11.85;94.30;96885.14;110285;1245;59632;-73
2022/10/02 03:56:21;;;;;;;3.60;3.20;;;;;;;11.77;94.48;96887.33;110496;1245;59678;-72
2022/10/02 03:58:54;;;;;;;4.00;2.90;;;;;;;11.71;94.51;96892.73;110411;1245;70809;-72
2022/10/02 04:01:30;;;;;;;3.80;3.10;;;;;;;11.68;94.83;96901.21;110487;1245;69333;-70
2022/10/02 04:04:07;;;;;;;4.10;2.90;;;;;;;11.67;95.18;96908.48;110383;1245;69708;-73
2022/10/02 04:06:43;;;;;;;5.10;3.60;;;;;;;11.61;95.13;96915.02;110455;1244;59660;-72
2022/10/02 04:09:32;;;;;;;3.20;2.70;;;;;;;11.61;94.67;96922.42;110374;1244;59753;-73
2022/10/02 04:12:12;;;;;;;5.20;3.30;;;;;;;11.61;94.80;96925.55;110369;1244;71808;-72
2022/10/02 04:14:55;;;;;;;3.80;2.80;;;;;;;11.60;94.76;96942.20;110364;1246;68547;-72
2022/10/02 04:17:47;;;;;;;5.10;3.00;;;;;;;11.54;94.67;96946.02;110330;1244;69385;-74
2022/10/02 04:20:25;;;;;;;3.30;2.60;;;;;;;11.45;93.61;96956.56;110517;1242;59621;-73
2022/10/02 04:23:01;;;;;;;4.10;2.50;;;;;;;11.41;92.89;96951.61;110332;1243;59678;-73
2022/10/02 04:25:38;;;;;;;3.70;2.30;;;;;;;11.39;92.18;96957.96;110363;1246;71391;-71
2022/10/02 04:28:13;;;;;;;2.80;2.30;;;;;;;11.34;89.43;96966.90;110296;1245;69265;-72
2022/10/02 04:30:41;;;;;;;3.60;2.80;;;;;;;11.29;88.99;96966.23;110384;1246;68649;-72
2022/10/02 04:33:21;;;;;;;2.70;1.90;;;;;;;11.28;89.69;96968.27;110452;1247;59739;-72
2022/10/02 04:36:15;;;;;;;3.70;2.20;;;;;;;11.14;88.99;96968.33;110510;1246;58771;-73
2022/10/02 04:38:55;;;;;;;3.40;2.50;;;;;;;11.10;89.32;96967.96;110590;1244;71434;-71
2022/10/02 04:41:46;;;;;;;3.10;2.30;;;;;;;11.01;89.48;96975.55;110630;1245;69785;-73
2022/10/02 04:44:49;;;;;;;3.80;2.50;;;;;;;10.92;89.61;96981.52;110416;1245;68493;-73
2022/10/02 04:47:44;;;;;;;2.50;1.80;;;;;;;10.85;90.06;96982.56;109968;1247;60220;-72
2022/10/02 04:50:16;;;;;;;3.30;2.20;;;;;;;10.78;90.36;96985.27;110465;1244;59661;-73
2022/10/02 04:53:11;;;;;;;3.20;1.90;;;;;;;10.76;90.72;96994.27;110300;1247;72589;-73
2022/10/02 04:55:56;;;;;;;3.30;2.00;;;;;;;10.77;90.97;97000.84;110423;1245;69380;-73
2022/10/02 04:58:36;;;;;;;3.40;2.30;;;;;;;10.81;90.98;97001.71;110683;1245;68837;-72
2022/10/02 05:01:34;;;;;;;2.90;2.30;;;;;;;10.87;90.68;97002.11;110551;1244;59694;-72
2022/10/02 05:04:05;;;;;;;3.20;2.60;;;;;;;10.94;90.30;96999.59;110441;1245;59685;-72
2022/10/02 05:06:52;;;;;;;4.00;2.10;;;;;;;11.05;88.69;97000.87;110521;1247;71485;-74
2022/10/02 05:10:00;;;;;;;3.20;2.40;;;;;;;11.19;88.64;97003.80;110677;1245;69360;-74
2022/10/02 05:12:59;;;;;;;3.40;2.50;;;;;;;11.31;88.92;97014.05;110071;1247;68605;-73
2022/10/02 05:15:39;;;;;;;3.00;2.10;;;;;;;11.30;88.99;97017.08;110498;1245;59751;-74
2022/10/02 05:18:55;;;;;;;4.20;2.80;;;;;;;11.38;89.05;97023.61;110647;1244;59665;-73
2022/10/02 05:21:58;;;;;;;3.30;2.40;;;;;;;11.37;88.92;97032.45;109705;1253;71497;-73
2022/10/02 05:24:33;;;;;;;2.90;2.40;;;;;;;11.33;89.17;97034.98;110765;1245;68500;-72
2022/10/02 05:27:17;;;;;;;3.50;2.60;;;;;;;11.34;89.18;97039.31;110506;1245;69410;-72
2022/10/02 05:30:15;;;;;;;3.50;3.10;;;;;;;11.31;88.85;97037.09;110707;1244;60188;-72
2022/10/02 05:33:16;;;;;;;4.00;2.60;;;;;;;11.26;88.23;97042.39;110423;1245;59706;-73
2022/10/02 05:36:07;;;;;;;3.30;2.80;;;;;;;11.33;88.07;97042.88;110355;1245;70682;-73
2022/10/02 05:38:47;;;;;;;3.20;2.50;;;;;;;11.41;87.01;97048.67;110292;1244;391007;-73
2022/10/02 05:41:40;;;;;;;4.10;2.60;;;;;;;11.57;86.97;97058.45;110559;1244;68625;-71
2022/10/02 05:44:19;;;;;;;3.70;2.80;;;;;;;11.55;86.48;97060.59;110480;1244;59687;-74
2022/10/02 05:47:14;;;;;;;3.50;3.00;;;;;;;11.61;86.18;97059.54;110929;1244;59643;-72
2022/10/02 05:49:52;;;;;;;2.70;2.20;;;;;;;11.78;85.38;97061.88;110576;1245;71431;-71
2022/10/02 05:52:24;;;;;;;4.40;2.90;;;;;;;11.94;85.00;97064.00;110596;1245;69586;-74
2022/10/02 05:54:57;;;;;;;3.00;2.40;;;;;;;12.43;84.75;97067.55;110765;1245;69664;-75
2022/10/02 05:57:32;;;;;;;3.10;2.60;;;;;;;12.85;82.05;97066.90;110725;1244;59678;-74
2022/10/02 06:00:14;;;;;;;4.10;2.80;;;;;;;13.10;80.13;97071.34;110438;1245;59663;-74
2022/10/02 06:02:56;;;;;;;3.40;2.80;;;;;;;13.21;78.05;97079.80;110644;1245;71408;-74
2022/10/02 06:05:42;;;;;;;2.60;2.00;;;;;;;13.51;77.96;97088.56;110508;1245;68361;-73
2022/10/02 06:08:14;;;;;;;3.40;2.40;;;;;;;13.33;75.84;97087.89;110441;1245;70019;-73
2022/10/02 06:10:48;;;;;;;3.90;2.30;;;;;;;13.68;76.81;97087.71;110300;1245;59730;-73
2022/10/02 06:13:57;;;;;;;3.40;2.30;;;;;;;14.11;75.80;97087.44;110324;1245;59720;-73
2022/10/02 06:16:50;;;;;;;2.80;2.10;;;;;;;14.22;73.74;97093.79;110354;1245;71442;-74
2022/10/02 06:19:36;;;;;;;3.10;2.20;;;;;;;14.55;73.39;97091.73;110403;1246;68768;-71
2022/10/02 06:22:13;;;;;;;2.80;2.10;;;;;;;14.52;71.58;97099.06;110224;1247;70069;-75
2022/10/02 06:24:56;;;;;;;3.30;2.20;;;;;;;14.78;71.28;97101.91;110220;1245;59744;-73
2022/10/02 06:27:45;;;;;;;3.00;2.00;;;;;;;14.71;69.63;97104.63;110387;1245;59621;-73
2022/10/02 06:30:17;;;;;;;2.30;1.80;;;;;;;14.86;70.98;97103.60;110288;1245;71383;-71
2022/10/02 06:32:44;;;;;;;3.20;2.20;;;;;;;15.01;68.50;97109.66;110336;1244;69351;-74
2022/10/02 06:35:15;;;;;;;2.00;1.60;;;;;;;15.17;68.19;97106.45;110344;1244;69868;-73
2022/10/02 06:37:55;;;;;;;2.40;1.90;;;;;;;15.34;67.58;97112.16;110361;1245;59699;-74
2022/10/02 06:40:53;;;;;;;2.20;1.70;;;;;;;15.30;66.60;97115.30;110488;1245;59630;-73
2022/10/02 06:43:48;;;;;;;2.80;1.70;;;;;;;15.64;65.85;97116.30;110443;1245;70900;-73
2022/10/02 06:46:25;;;;;;;1.90;1.60;;;;;;;15.63;65.17;97120.80;110336;1245;69246;-72
2022/10/02 06:49:08;;;;;;;2.00;1.80;;;;;;;15.50;65.77;97119.21;110495;1244;67519;-73
2022/10/02 06:52:03;;;;;;;2.90;1.80;;;;;;;15.04;66.04;97128.57;110731;1245;59738;-74
2022/10/02 06:54:46;;;;;;;2.90;1.90;;;;;;;14.80;67.20;97132.74;110519;1245;59684;-72
2022/10/02 06:57:25;;;;;;;3.50;1.90;;;;;;;14.86;67.55;97136.76;110503;1245;70562;-73
2022/10/02 06:59:53;;;;;;;2.00;1.60;;;;;;;15.22;66.08;97141.71;110452;1244;68469;-74
2022/10/02 07:02:40;;;;;;;3.60;1.90;;;;;;;15.68;66.79;97144.82;110441;1245;71150;-73
2022/10/02 07:05:31;;;;;;;1.80;1.40;;;;;;;15.88;64.17;97149.76;110346;1245;59685;-73
2022/10/02 07:08:17;;;;;;;2.10;1.20;;;;;;;15.78;62.28;97156.50;110475;1244;59711;-74
2022/10/02 07:10:56;;;;;;;1.50;1.30;;;;;;;16.33;60.89;97162.35;110428;1244;72045;-74
2022/10/02 07:13:35;;;;;;;1.40;1.10;;;;;;;16.80;60.69;97171.89;110555;1245;68982;-74
2022/10/02 07:16:29;;;;;;;3.90;1.40;;;;;;;17.02;57.51;97166.31;110288;1245;68698;-71
2022/10/02 07:19:04;;;;;;;1.00;1.00;;;;;;;17.27;58.26;97170.02;110377;1245;59740;-74
2022/10/02 07:21:49;;;;;;;1.20;1.10;;;;;;;17.67;58.12;97171.67;110265;1245;59691;-73
2022/10/02 07:24:48;;;;;;;1.90;1.30;;;;;;;17.92;56.88;97170.26;110365;1244;72525;-73
2022/10/02 07:27:23;;;;;;;3.00;1.20;;;;;;;17.89;55.07;97174.75;110264;1245;68670;-74
2022/10/02 07:30:04;;;;;;;1.30;1.20;;;;;;;17.18;56.08;97181.36;110383;1245;69292;-74
2022/10/02 07:32:50;;;;;;;1.50;1.40;;;;;;;18.04;55.86;97186.63;110392;1245;59680;-74
2022/10/02 07:35:27;;;;;;;2.40;1.10;;;;;;;18.57;53.80;97188.96;110395;1245;59682;-74
2022/10/02 07:38:03;;;;;;;1.00;0.90;;;;;;;18.97;54.13;97188.69;110452;1245;72272;-73
2022/10/02 07:40:49;;;;;;;1.50;1.00;;;;;;;18.90;52.04;97191.45;110407;1245;69143;-73
2022/10/02 07:43:16;;;;;;;2.90;1.10;;;;;;;19.08;52.52;97189.89;110473;1244;68496;-73
2022/10/02 07:46:15;;;;;;;1.80;0.90;;;;;;;19.30;50.97;97186.73;110470;1245;59688;-73
2022/10/02 07:49:20;;;;;;;2.30;1.00;;;;;;;19.05;49.25;97188.13;110202;1245;59720;-72
2022/10/02 07:52:10;;;;;;;1.20;0.70;;;;;;;19.16;51.02;97192.45;110437;1244;71675;-73
2022/10/02 07:54:51;;;;;;;1.20;0.80;;;;;;;18.33;50.01;97195.86;110541;1245;69819;-73
2022/10/02 07:57:27;;;;;;;2.60;0.80;;;;;;;17.45;51.06;97190.48;110712;1245;70444;-72
2022/10/02 08:00:02;;;;;;;1.70;0.90;;;;;;;17.28;52.71;97202.35;110418;1245;60155;-72
2022/10/02 08:02:54;;;;;;;1.60;1.00;;;;;;;16.94;53.21;97207.06;110369;1244;59736;-71
2022/10/02 08:05:27;;;;;;;1.70;1.00;;;;;;;16.80;54.59;97209.15;110457;1245;71580;-74
2022/10/02 08:08:01;;;;;;;1.40;1.00;;;;;;;16.74;54.99;97211.02;110531;1244;68490;-72
2022/10/02 08:10:38;;;;;;;1.10;1.00;;;;;;;16.54;55.12;97212.12;110332;1246;69260;-71
2022/10/02 08:13:31;;;;;;;2.20;1.10;;;;;;;16.11;56.85;97212.28;110376;1247;59721;-74
2022/10/02 08:16:05;;;;;;;2.40;1.60;;;;;;;16.51;57.07;97209.59;110563;1245;59675;-73
2022/10/02 08:18:44;;;;;;;1.80;1.10;;;;;;;16.93;56.19;97207.90;110395;1247;70666;-72
2022/10/02 08:21:16;;;;;;;1.60;1.00;;;;;;;17.05;55.94;97207.86;110450;1245;69574;-74
2022/10/02 08:24:36;;;;;;;1.30;1.00;;;;;;;17.84;54.64;97199.79;110310;1247;69387;-71
2022/10/02 08:27:14;;;;;;;1.10;1.00;;;;;;;18.89;52.98;97198.55;109441;1253;59716;-72
2022/10/02 08:29:56;;;;;;;1.50;0.80;;;;;;;19.65;51.53;97192.91;109488;1253;59862;-73
2022/10/02 08:32:35;;;;;;;0.80;0.80;;;;;;;20.31;49.61;97192.84;110048;1247;71188;-72
2022/10/02 08:35:12;;;;;;;1.60;1.10;;;;;;;20.61;47.19;97191.91;110246;1247;70440;-72
2022/10/02 08:37:52;;;;;;;1.50;1.00;;;;;;;20.26;47.74;97189.30;110245;1246;68714;-71
2022/10/02 08:40:24;;;;;;;1.90;1.10;;;;;;;20.60;48.07;97191.55;110379;1247;59675;-71
2022/10/02 08:43:07;;;;;;;1.40;1.00;;;;;;;20.25;47.46;97194.84;110398;1244;59733;-74
2022/10/02 08:46:01;;;;;;;1.60;1.00;;;;;;;20.05;46.95;97192.05;110360;1245;71514;-74
2022/10/02 08:49:06;;;;;;;1.50;0.90;;;;;;;19.76;46.86;97192.42;110322;1244;71130;-73
2022/10/02 08:52:11;;;;;;;1.90;1.00;;;;;;;18.99;48.58;97201.48;110371;1244;69930;-73
2022/10/02 08:54:56;;;;;;;1.30;0.80;;;;;;;18.81;49.03;97194.85;110294;1247;59751;-75
2022/10/02 08:57:35;;;;;;;1.80;0.90;;;;;;;19.26;49.38;97205.02;110952;1244;59675;-72
2022/10/02 09:00:08;;;;;;;1.00;0.80;;;;;;;19.09;49.51;97204.72;111212;1244;71409;-72
2022/10/02 09:02:54;;;;;;;2.50;0.80;;;;;;;19.06;48.82;97202.34;111383;1245;68782;-72
2022/10/02 09:05:22;;;;;;;1.10;0.80;;;;;;;18.95;49.02;97206.38;110395;1244;68541;-73
2022/10/02 09:08:08;;;;;;;1.20;1.00;;;;;;;19.54;48.99;97205.45;110531;1245;59737;-71
2022/10/02 09:10:50;;;;;;;1.30;0.90;;;;;;;19.94;48.43;97209.11;110506;1247;59751;-72
2022/10/02 09:13:38;;;;;;;2.00;0.90;;;;;;;20.18;47.00;97201.17;110443;1245;71324;-72
2022/10/02 09:16:52;;;;;;;0.90;0.80;;;;;;;19.65;46.28;97200.50;110322;1245;69674;-74
2022/10/02 09:19:40;;;;;;;1.00;0.90;;;;;;;20.25;46.79;97198.05;109855;1249;69511;-72
2022/10/02 09:22:26;;;;;;;2.20;1.00;;;;;;;20.42;45.19;97203.34;110415;1245;59791;-75
2022/10/02 09:25:25;;;;;;;1.70;1.20;;;;;;;20.38;45.58;97206.36;110424;1245;59766;-72
2022/10/02 09:28:11;;;;;;;1.70;1.00;;;;;;;19.67;46.84;97208.42;110440;1246;71480;-73
2022/10/02 09:30:51;;;;;;;1.50;1.00;;;;;;;19.59;46.74;97213.34;110581;1245;69933;-75
2022/10/02 09:33:32;;;;;;;2.10;1.10;;;;;;;19.00;48.33;97213.98;110328;1244;69423;-74
2022/10/02 09:36:17;;;;;;;2.20;1.10;;;;;;;18.99;47.52;97209.11;110386;1244;60046;-72
2022/10/02 09:38:54;;;;;;;1.30;1.20;;;;;;;19.08;47.45;97207.10;110385;1247;59697;-73
2022/10/02 09:41:40;;;;;;;1.10;1.00;;;;;;;19.04;47.56;97203.14;110463;1244;71969;-74
2022/10/02 09:44:34;;;;;;;3.20;1.20;;;;;;;19.18;47.66;97206.98;110398;1244;69915;-72
2022/10/02 09:47:14;;;;;;;1.20;1.10;;;;;;;18.69;48.32;97212.61;110349;1247;69065;-74
2022/10/02 09:49:56;;;;;;;2.40;1.30;;;;;;;19.25;48.02;97208.50;110230;1244;59679;-73
2022/10/02 09:52:45;;;;;;;1.40;0.70;;;;;;;20.03;46.02;97200.30;110409;1244;59721;-75
2022/10/02 09:55:34;;;;;;;0.80;0.80;;;;;;;20.26;44.46;97204.34;110395;1245;72046;-73
2022/10/02 09:58:26;;;;;;;1.00;0.90;;;;;;;21.08;43.93;97206.58;110359;1244;69896;-74
2022/10/02 10:01:15;;;;;;;1.60;0.90;;;;;;;20.96;42.82;97209.92;110298;1246;68507;-74
2022/10/02 10:04:07;;;;;;;1.10;0.80;;;;;;;20.69;42.39;97206.13;110395;1245;59749;-74
2022/10/02 10:06:59;;;;;;;0.70;0.70;;;;;;;21.13;41.51;97199.81;110685;1244;59721;-76
2022/10/02 10:10:04;;;;;;;0.80;0.80;;;;;;;20.34;42.56;97201.27;110569;1244;72199;-73
2022/10/02 10:12:59;;;;;;;0.80;0.70;;;;;;;19.99;43.00;97199.99;110514;1247;69986;-73
2022/10/02 10:16:00;;;;;;;1.30;0.90;;;;;;;20.01;44.16;97198.67;110368;1247;67767;-73
2022/10/02 10:19:02;;;;;;;0.80;0.70;;;;;;;19.89;44.16;97202.23;110291;1244;59690;-74
2022/10/02 10:21:57;;;;;;;1.30;0.70;;;;;;;19.15;45.02;97199.40;110065;1244;59732;-73
2022/10/02 10:25:01;;;;;;;1.10;0.90;;;;;;;18.59;45.95;97202.52;110375;1245;71643;-71
2022/10/02 10:27:51;;;;;;;0.80;0.80;;;;;;;18.92;45.80;97206.67;110420;1244;69397;-73
2022/10/02 10:30:22;;;;;;;0.90;0.80;;;;;;;18.64;46.24;97210.47;110259;1247;69666;-73
2022/10/02 10:33:12;;;;;;;1.20;0.80;;;;;;;18.81;46.73;97210.39;110481;1247;59706;-71
2022/10/02 10:35:42;;;;;;;1.40;1.00;;;;;;;19.06;46.19;97207.98;110509;1247;59668;-72
2022/10/02 10:38:36;;;;;;;1.90;1.20;;;;;;;18.75;46.35;97212.94;110382;1246;72277;-71
2022/10/02 10:41:11;;;;;;;1.90;0.90;;;;;;;19.68;44.68;97203.38;110402;1245;68793;-72
2022/10/02 10:44:20;;;;;;;1.60;0.90;;;;;;;19.97;44.58;97202.73;110370;1247;70278;-73
2022/10/02 10:47:14;;;;;;;1.00;0.80;;;;;;;20.26;43.81;97199.41;109722;1248;59707;-72
2022/10/02 10:50:01;;;;;;;0.70;0.60;;;;;;;19.83;42.38;97204.26;110253;1247;59679;-70
2022/10/02 10:52:34;;;;;;;1.70;0.60;;;;;;;20.52;42.57;97205.10;110237;1247;71495;-71
2022/10/02 10:55:18;;;;;;;0.90;0.70;;;;;;;20.58;40.77;97199.52;110265;1247;69830;-72
2022/10/02 10:57:54;;;;;;;0.90;0.60;;;;;;;21.32;39.59;97200.06;110248;1247;68496;-72
2022/10/02 11:00:25;;;;;;;0.60;0.40;;;;;;;21.33;39.07;97194.79;110266;1247;59686;-73
2022/10/02 11:03:16;;;;;;;0.90;0.50;;;;;;;22.18;38.18;97185.69;110389;1246;59683;-71
2022/10/02 11:06:28;;;;;;;0.90;0.50;;;;;;;22.75;37.03;97187.73;110216;1247;71745;-73
2022/10/02 11:09:27;;;;;;;0.60;0.40;;;;;;;21.86;36.68;97175.60;109959;1251;69851;-71
2022/10/02 11:12:15;;;;;;;;;;;;;;;21.93;36.27;97167.83;109728;1254;69871;-73
2022/10/02 11:14:53;;;;;;;0.50;0.40;;;;;;;22.54;35.94;97163.81;110219;1244;59752;-72
2022/10/02 11:17:49;;;;;;;1.20;0.40;;;;;;;22.58;36.42;97167.91;110375;1245;59624;-72
2022/10/02 11:20:39;;;;;;;0.40;0.40;;;;;;;21.39;37.92;97180.38;110183;1244;70758;-73
2022/10/02 11:23:12;;;;;;;0.90;0.50;;;;;;;19.50;41.70;97176.08;110530;1245;68507;-73
2022/10/02 11:25:48;;;;;;;0.90;0.60;;;;;;;19.45;43.08;97181.00;110413;1246;68650;-74
2022/10/02 11:28:20;;;;;;;0.40;0.40;;;;;;;19.04;45.43;97180.27;110338;1244;59738;-73
2022/10/02 11:31:10;;;;;;;0.80;0.60;;;;;;;19.20;46.05;97179.23;110478;1244;59712;-72
2022/10/02 11:34:07;;;;;;;0.40;0.40;;;;;;;19.86;46.53;97172.32;110504;1245;72022;-73
2022/10/02 11:37:17;;;;;;;0.80;0.50;;;;;;;20.19;44.82;97171.95;110071;1244;69331;-73
2022/10/02 11:40:03;;;;;;;2.10;0.90;;;;;;;20.56;43.92;97162.16;110209;1244;68626;-73
2022/10/02 11:42:57;;;;;;;1.70;0.70;;;;;;;20.97;43.01;97159.08;110443;1244;59734;-72
2022/10/02 11:45:43;;;;;;;0.70;0.60;;;;;;;20.77;42.57;97153.25;110431;1247;59728;-72
2022/10/02 11:48:37;;;;;;;1.10;0.50;;;;;;;20.86;42.45;97148.25;110264;1247;71736;-71
2022/10/02 11:51:26;;;;;;;1.20;0.90;;;;;;;21.75;40.69;97147.98;110444;1247;69176;-71
2022/10/02 11:54:15;;;;;;;1.00;0.70;;;;;;;22.35;39.57;97146.81;110391;1247;69265;-72
2022/10/02 11:56:59;;;;;;;1.20;0.70;;;;;;;22.51;38.98;97146.31;110231;1245;59670;-73
2022/10/02 11:59:48;;;;;;;1.00;0.60;;;;;;;21.62;40.03;97145.34;110274;1247;59705;-73
2022/10/02 12:03:06;;;;;;;1.10;1.00;;;;;;;20.57;40.54;97139.45;110555;1246;70730;-71
2022/10/02 12:05:54;;;;;;;3.20;2.20;;;;;;;21.04;40.54;97145.59;110205;1245;68988;-72
2022/10/02 12:08:33;;;;;;;2.40;1.70;;;;;;;20.22;41.67;97145.92;110541;1247;69918;-72
2022/10/02 12:11:09;;;;;;;2.30;1.70;;;;;;;20.67;41.54;97147.73;110505;1246;59696;-72
2022/10/02 12:13:51;;;;;;;0.80;0.80;;;;;;;21.47;40.39;97140.78;110564;1244;59685;-73
2022/10/02 12:16:23;;;;;;;1.00;0.80;;;;;;;21.41;38.60;97141.38;110470;1244;71446;-73
2022/10/02 12:19:13;;;;;;;5.00;4.50;;;;;;;21.38;38.92;97150.52;110508;1244;69251;-72
2022/10/02 12:27:42;;;;;;;1.50;0.90;;;;;;;20.99;39.86;97155.73;110297;1244;59658;-73
2022/10/02 12:30:19;;;;;;;1.00;0.90;;;;;;;20.70;40.30;97151.59;110190;1244;72014;-72
2022/10/02 12:32:55;;;;;;;2.30;1.30;;;;;;;20.98;40.31;97151.80;110546;1244;68014;-71
2022/10/02 12:35:39;;;;;;;2.10;1.30;;;;;;;20.67;40.51;97153.71;110863;1244;68211;-72
2022/10/02 12:38:12;;;;;;;1.20;0.90;;;;;;;20.40;41.34;97153.64;110423;1244;59695;-72
2022/10/02 12:40:54;;;;;;;1.00;0.80;;;;;;;19.98;42.10;97147.54;110489;1246;59661;-73
2022/10/02 12:43:43;;;;;;;1.00;0.80;;;;;;;19.17;43.85;97146.33;110311;1244;71509;-72
2022/10/02 12:46:28;;;;;;;1.10;0.80;;;;;;;19.00;44.88;97147.42;110542;1244;69224;-72